sensor_id;sensor_type;location;lat;lon;timestamp;temperature;humidity
23813;DHT22;12087;45.190;5.688;2023-11-21T00:02:26;10.20;99.90
23813;DHT22;12087;45.190;5.688;2023-11-21T00:07:50;10.10;99.90
23813;DHT22;12087;45.190;5.688;2023-11-21T00:13:12;10.00;99.90
23813;DHT22;12087;45.190;5.688;2023-11-21T00:18:34;9.90;99.90
23813;DHT22;12087;45.190;5.688;2023-11-21T00:23:58;10.00;99.90
23813;DHT22;12087;45.190;5.688;2023-11-21T00:29:20;9.90;99.90
23813;DHT22;12087;45.190;5.688;2023-11-21T00:34:42;9.90;99.90
23813;DHT22;12087;45.190;5.688;2023-11-21T00:40:07;9.90;99.90
23813;DHT22;12087;45.190;5.688;2023-11-21T00:45:30;9.80;99.90
23813;DHT22;12087;45.190;5.688;2023-11-21T00:50:52;9.80;99.90
23813;DHT22;12087;45.190;5.688;2023-11-21T00:56:15;9.70;99.90
23813;DHT22;12087;45.190;5.688;2023-11-21T01:01:38;9.70;99.90
23813;DHT22;12087;45.190;5.688;2023-11-21T01:07:00;9.60;99.90
23813;DHT22;12087;45.190;5.688;2023-11-21T01:12:23;9.70;99.90
23813;DHT22;12087;45.190;5.688;2023-11-21T01:17:47;9.70;99.90
23813;DHT22;12087;45.190;5.688;2023-11-21T01:23:09;9.70;99.90
23813;DHT22;12087;45.190;5.688;2023-11-21T01:28:32;9.80;99.90
23813;DHT22;12087;45.190;5.688;2023-11-21T01:33:54;9.70;99.90
23813;DHT22;12087;45.190;5.688;2023-11-21T01:39:17;9.70;99.90
23813;DHT22;12087;45.190;5.688;2023-11-21T01:44:45;9.70;99.90
23813;DHT22;12087;45.190;5.688;2023-11-21T01:50:09;9.70;99.90
23813;DHT22;12087;45.190;5.688;2023-11-21T01:55:34;9.60;99.90
23813;DHT22;12087;45.190;5.688;2023-11-21T02:00:58;9.60;99.90
23813;DHT22;12087;45.190;5.688;2023-11-21T02:06:20;9.70;99.90
23813;DHT22;12087;45.190;5.688;2023-11-21T02:11:43;9.70;99.90
23813;DHT22;12087;45.190;5.688;2023-11-21T02:17:07;9.70;99.90
23813;DHT22;12087;45.190;5.688;2023-11-21T02:22:31;9.60;99.90
23813;DHT22;12087;45.190;5.688;2023-11-21T02:27:56;9.60;99.90
23813;DHT22;12087;45.190;5.688;2023-11-21T02:33:18;9.50;99.90
23813;DHT22;12087;45.190;5.688;2023-11-21T02:38:40;9.50;99.90
23813;DHT22;12087;45.190;5.688;2023-11-21T02:44:04;9.50;99.90
23813;DHT22;12087;45.190;5.688;2023-11-21T02:49:28;9.40;99.90
23813;DHT22;12087;45.190;5.688;2023-11-21T02:54:51;9.30;99.90
23813;DHT22;12087;45.190;5.688;2023-11-21T03:00:15;9.30;99.90
23813;DHT22;12087;45.190;5.688;2023-11-21T03:05:38;9.20;99.90
23813;DHT22;12087;45.190;5.688;2023-11-21T03:11:00;9.10;99.90
23813;DHT22;12087;45.190;5.688;2023-11-21T03:16:24;9.10;99.90
23813;DHT22;12087;45.190;5.688;2023-11-21T03:21:47;9.00;99.90
23813;DHT22;12087;45.190;5.688;2023-11-21T03:27:09;9.10;99.90
23813;DHT22;12087;45.190;5.688;2023-11-21T03:32:33;9.20;99.90
23813;DHT22;12087;45.190;5.688;2023-11-21T03:37:56;9.20;99.90
23813;DHT22;12087;45.190;5.688;2023-11-21T03:43:18;9.30;99.90
23813;DHT22;12087;45.190;5.688;2023-11-21T03:48:42;9.40;99.90
23813;DHT22;12087;45.190;5.688;2023-11-21T03:54:04;9.40;99.90
23813;DHT22;12087;45.190;5.688;2023-11-21T03:59:28;9.40;99.90
23813;DHT22;12087;45.190;5.688;2023-11-21T04:04:52;9.40;99.90
23813;DHT22;12087;45.190;5.688;2023-11-21T04:10:14;9.50;99.90
23813;DHT22;12087;45.190;5.688;2023-11-21T04:15:36;9.40;99.90
23813;DHT22;12087;45.190;5.688;2023-11-21T04:21:00;9.50;99.90
23813;DHT22;12087;45.190;5.688;2023-11-21T04:26:22;9.50;99.90
23813;DHT22;12087;45.190;5.688;2023-11-21T04:31:45;9.50;99.90
23813;DHT22;12087;45.190;5.688;2023-11-21T04:37:08;9.50;99.90
23813;DHT22;12087;45.190;5.688;2023-11-21T04:42:31;9.60;99.90
23813;DHT22;12087;45.190;5.688;2023-11-21T04:47:53;9.60;99.90
23813;DHT22;12087;45.190;5.688;2023-11-21T04:53:17;9.60;99.90
23813;DHT22;12087;45.190;5.688;2023-11-21T04:58:39;9.60;99.90
23813;DHT22;12087;45.190;5.688;2023-11-21T05:04:01;9.70;99.90
23813;DHT22;12087;45.190;5.688;2023-11-21T05:09:25;9.70;99.90
23813;DHT22;12087;45.190;5.688;2023-11-21T05:14:48;9.70;99.90
23813;DHT22;12087;45.190;5.688;2023-11-21T05:20:11;9.80;99.90
23813;DHT22;12087;45.190;5.688;2023-11-21T05:25:35;9.70;99.90
23813;DHT22;12087;45.190;5.688;2023-11-21T05:30:58;9.80;99.90
23813;DHT22;12087;45.190;5.688;2023-11-21T05:36:20;9.80;99.90
23813;DHT22;12087;45.190;5.688;2023-11-21T05:41:43;9.70;99.90
23813;DHT22;12087;45.190;5.688;2023-11-21T05:47:05;9.80;99.90
23813;DHT22;12087;45.190;5.688;2023-11-21T05:52:28;9.70;99.90
23813;DHT22;12087;45.190;5.688;2023-11-21T05:57:52;9.70;99.90
23813;DHT22;12087;45.190;5.688;2023-11-21T06:03:14;9.70;99.90
23813;DHT22;12087;45.190;5.688;2023-11-21T06:08:38;9.70;99.90
23813;DHT22;12087;45.190;5.688;2023-11-21T06:14:02;9.70;99.90
23813;DHT22;12087;45.190;5.688;2023-11-21T06:19:24;9.70;99.90
23813;DHT22;12087;45.190;5.688;2023-11-21T06:24:46;9.70;99.90
23813;DHT22;12087;45.190;5.688;2023-11-21T06:30:10;9.70;99.90
23813;DHT22;12087;45.190;5.688;2023-11-21T06:35:34;9.70;99.90
23813;DHT22;12087;45.190;5.688;2023-11-21T06:40:56;9.70;99.90
23813;DHT22;12087;45.190;5.688;2023-11-21T06:46:20;9.70;99.90
23813;DHT22;12087;45.190;5.688;2023-11-21T06:51:42;9.70;99.90
23813;DHT22;12087;45.190;5.688;2023-11-21T06:57:04;9.80;99.90
23813;DHT22;12087;45.190;5.688;2023-11-21T07:02:28;9.70;99.90
23813;DHT22;12087;45.190;5.688;2023-11-21T07:07:50;9.70;99.90
23813;DHT22;12087;45.190;5.688;2023-11-21T07:13:14;9.70;99.90
23813;DHT22;12087;45.190;5.688;2023-11-21T07:18:38;9.80;99.90
23813;DHT22;12087;45.190;5.688;2023-11-21T07:24:01;9.80;99.90
23813;DHT22;12087;45.190;5.688;2023-11-21T07:29:23;9.80;99.90
23813;DHT22;12087;45.190;5.688;2023-11-21T07:34:47;9.80;99.90
23813;DHT22;12087;45.190;5.688;2023-11-21T07:40:10;9.70;99.90
23813;DHT22;12087;45.190;5.688;2023-11-21T07:45:32;9.70;99.90
23813;DHT22;12087;45.190;5.688;2023-11-21T07:50:56;9.70;99.90
23813;DHT22;12087;45.190;5.688;2023-11-21T07:56:19;9.70;99.90
23813;DHT22;12087;45.190;5.688;2023-11-21T08:01:41;9.70;99.90
23813;DHT22;12087;45.190;5.688;2023-11-21T08:07:05;9.80;99.90
23813;DHT22;12087;45.190;5.688;2023-11-21T08:12:27;9.70;99.90
23813;DHT22;12087;45.190;5.688;2023-11-21T08:17:51;9.90;99.90
23813;DHT22;12087;45.190;5.688;2023-11-21T08:23:19;9.80;99.90
23813;DHT22;12087;45.190;5.688;2023-11-21T08:28:41;9.90;99.90
23813;DHT22;12087;45.190;5.688;2023-11-21T08:34:03;9.80;99.90
23813;DHT22;12087;45.190;5.688;2023-11-21T08:39:26;9.80;99.90
23813;DHT22;12087;45.190;5.688;2023-11-21T08:44:49;9.80;99.90
23813;DHT22;12087;45.190;5.688;2023-11-21T08:50:12;9.80;99.90
23813;DHT22;12087;45.190;5.688;2023-11-21T08:55:35;9.80;99.90
23813;DHT22;12087;45.190;5.688;2023-11-21T09:00:58;9.70;99.90
23813;DHT22;12087;45.190;5.688;2023-11-21T09:06:20;9.70;99.90
23813;DHT22;12087;45.190;5.688;2023-11-21T09:11:44;9.70;99.90
23813;DHT22;12087;45.190;5.688;2023-11-21T09:17:06;9.70;99.90
23813;DHT22;12087;45.190;5.688;2023-11-21T09:22:31;9.80;99.90
23813;DHT22;12087;45.190;5.688;2023-11-21T09:27:55;9.90;99.90
23813;DHT22;12087;45.190;5.688;2023-11-21T09:33:18;9.90;99.90
23813;DHT22;12087;45.190;5.688;2023-11-21T09:38:41;9.90;99.90
23813;DHT22;12087;45.190;5.688;2023-11-21T09:44:07;9.90;99.90
23813;DHT22;12087;45.190;5.688;2023-11-21T09:49:33;9.90;99.90
23813;DHT22;12087;45.190;5.688;2023-11-21T09:54:56;10.00;99.90
23813;DHT22;12087;45.190;5.688;2023-11-21T10:00:22;10.10;99.90
23813;DHT22;12087;45.190;5.688;2023-11-21T10:05:45;10.10;99.90
23813;DHT22;12087;45.190;5.688;2023-11-21T10:11:08;10.10;99.90
23813;DHT22;12087;45.190;5.688;2023-11-21T10:16:34;10.10;99.90
23813;DHT22;12087;45.190;5.688;2023-11-21T10:21:59;10.20;99.90
23813;DHT22;12087;45.190;5.688;2023-11-21T10:27:23;10.30;99.90
23813;DHT22;12087;45.190;5.688;2023-11-21T10:32:47;10.30;99.90
23813;DHT22;12087;45.190;5.688;2023-11-21T10:38:09;10.40;99.90
23813;DHT22;12087;45.190;5.688;2023-11-21T10:43:31;10.50;99.90
23813;DHT22;12087;45.190;5.688;2023-11-21T10:48:55;10.50;99.90
23813;DHT22;12087;45.190;5.688;2023-11-21T10:54:21;10.60;99.90
23813;DHT22;12087;45.190;5.688;2023-11-21T10:59:46;10.70;99.90
23813;DHT22;12087;45.190;5.688;2023-11-21T11:05:11;10.70;99.90
23813;DHT22;12087;45.190;5.688;2023-11-21T11:10:33;10.80;99.90
23813;DHT22;12087;45.190;5.688;2023-11-21T11:15:58;10.90;99.90
23813;DHT22;12087;45.190;5.688;2023-11-21T11:21:36;10.90;99.90
23813;DHT22;12087;45.190;5.688;2023-11-21T11:27:07;10.90;99.90
23813;DHT22;12087;45.190;5.688;2023-11-21T11:32:40;10.90;99.90
23813;DHT22;12087;45.190;5.688;2023-11-21T11:38:06;11.00;99.90
23813;DHT22;12087;45.190;5.688;2023-11-21T11:43:29;11.00;99.90
23813;DHT22;12087;45.190;5.688;2023-11-21T11:49:02;11.00;99.90
23813;DHT22;12087;45.190;5.688;2023-11-21T11:54:36;11.00;99.90
23813;DHT22;12087;45.190;5.688;2023-11-21T12:00:15;11.00;99.90
23813;DHT22;12087;45.190;5.688;2023-11-21T12:05:40;11.10;99.90
23813;DHT22;12087;45.190;5.688;2023-11-21T12:11:07;11.00;99.90
23813;DHT22;12087;45.190;5.688;2023-11-21T12:16:32;11.00;99.90
23813;DHT22;12087;45.190;5.688;2023-11-21T12:21:55;10.90;99.90
23813;DHT22;12087;45.190;5.688;2023-11-21T12:27:21;11.00;99.90
23813;DHT22;12087;45.190;5.688;2023-11-21T12:32:44;11.00;99.90
23813;DHT22;12087;45.190;5.688;2023-11-21T12:38:07;11.00;99.90
23813;DHT22;12087;45.190;5.688;2023-11-21T12:43:32;11.00;99.90
23813;DHT22;12087;45.190;5.688;2023-11-21T12:48:56;11.10;99.90
23813;DHT22;12087;45.190;5.688;2023-11-21T12:54:19;11.10;99.90
23813;DHT22;12087;45.190;5.688;2023-11-21T12:59:45;11.10;99.90
23813;DHT22;12087;45.190;5.688;2023-11-21T13:05:08;11.00;99.90
23813;DHT22;12087;45.190;5.688;2023-11-21T13:10:40;11.10;99.90
23813;DHT22;12087;45.190;5.688;2023-11-21T13:16:06;11.10;99.90
23813;DHT22;12087;45.190;5.688;2023-11-21T13:21:29;11.20;99.90
23813;DHT22;12087;45.190;5.688;2023-11-21T13:26:51;11.30;99.90
23813;DHT22;12087;45.190;5.688;2023-11-21T13:32:14;11.20;99.90
23813;DHT22;12087;45.190;5.688;2023-11-21T13:37:38;11.20;99.90
23813;DHT22;12087;45.190;5.688;2023-11-21T13:43:01;11.10;99.90
23813;DHT22;12087;45.190;5.688;2023-11-21T13:48:27;11.00;99.90
23813;DHT22;12087;45.190;5.688;2023-11-21T13:53:55;11.00;99.90
23813;DHT22;12087;45.190;5.688;2023-11-21T13:59:17;11.00;99.90
23813;DHT22;12087;45.190;5.688;2023-11-21T14:04:45;11.00;99.90
23813;DHT22;12087;45.190;5.688;2023-11-21T14:10:16;11.00;99.90
23813;DHT22;12087;45.190;5.688;2023-11-21T14:15:42;11.00;99.90
23813;DHT22;12087;45.190;5.688;2023-11-21T14:21:08;11.00;99.90
23813;DHT22;12087;45.190;5.688;2023-11-21T14:26:31;10.90;99.90
23813;DHT22;12087;45.190;5.688;2023-11-21T14:31:53;10.90;99.90
23813;DHT22;12087;45.190;5.688;2023-11-21T14:37:19;10.90;99.90
23813;DHT22;12087;45.190;5.688;2023-11-21T14:42:42;10.80;99.90
23813;DHT22;12087;45.190;5.688;2023-11-21T14:48:07;10.80;99.90
23813;DHT22;12087;45.190;5.688;2023-11-21T14:53:38;10.80;99.90
23813;DHT22;12087;45.190;5.688;2023-11-21T14:59:13;10.80;99.90
23813;DHT22;12087;45.190;5.688;2023-11-21T15:04:37;10.80;99.90
23813;DHT22;12087;45.190;5.688;2023-11-21T15:10:01;10.80;99.90
23813;DHT22;12087;45.190;5.688;2023-11-21T15:15:24;10.70;99.90
23813;DHT22;12087;45.190;5.688;2023-11-21T15:20:46;10.80;99.90
23813;DHT22;12087;45.190;5.688;2023-11-21T15:26:10;10.80;99.90
23813;DHT22;12087;45.190;5.688;2023-11-21T15:31:32;10.80;99.90
23813;DHT22;12087;45.190;5.688;2023-11-21T15:36:54;10.70;99.90
23813;DHT22;12087;45.190;5.688;2023-11-21T15:42:18;10.70;99.90
23813;DHT22;12087;45.190;5.688;2023-11-21T15:47:40;10.60;99.90
23813;DHT22;12087;45.190;5.688;2023-11-21T15:53:02;10.60;99.90
23813;DHT22;12087;45.190;5.688;2023-11-21T15:58:27;10.60;99.90
23813;DHT22;12087;45.190;5.688;2023-11-21T16:03:50;10.60;99.90
23813;DHT22;12087;45.190;5.688;2023-11-21T16:09:12;10.50;99.90
23813;DHT22;12087;45.190;5.688;2023-11-21T16:14:44;10.50;99.90
23813;DHT22;12087;45.190;5.688;2023-11-21T16:20:08;10.50;99.90
23813;DHT22;12087;45.190;5.688;2023-11-21T16:25:34;10.50;99.90
23813;DHT22;12087;45.190;5.688;2023-11-21T16:30:58;10.40;99.90
23813;DHT22;12087;45.190;5.688;2023-11-21T16:36:20;10.30;99.90
23813;DHT22;12087;45.190;5.688;2023-11-21T16:41:43;10.30;99.90
23813;DHT22;12087;45.190;5.688;2023-11-21T16:47:06;10.20;99.90
23813;DHT22;12087;45.190;5.688;2023-11-21T16:52:29;10.20;99.90
23813;DHT22;12087;45.190;5.688;2023-11-21T16:57:52;10.10;99.90
23813;DHT22;12087;45.190;5.688;2023-11-21T17:03:15;10.10;99.90
23813;DHT22;12087;45.190;5.688;2023-11-21T17:08:37;10.10;99.90
23813;DHT22;12087;45.190;5.688;2023-11-21T17:14:00;10.10;99.90
23813;DHT22;12087;45.190;5.688;2023-11-21T17:19:24;10.00;99.90
23813;DHT22;12087;45.190;5.688;2023-11-21T17:24:52;10.00;99.90
23813;DHT22;12087;45.190;5.688;2023-11-21T17:30:14;10.00;99.90
23813;DHT22;12087;45.190;5.688;2023-11-21T17:35:41;10.00;99.90
23813;DHT22;12087;45.190;5.688;2023-11-21T17:41:07;10.00;99.90
23813;DHT22;12087;45.190;5.688;2023-11-21T17:46:31;10.00;99.90
23813;DHT22;12087;45.190;5.688;2023-11-21T17:51:57;10.00;99.90
23813;DHT22;12087;45.190;5.688;2023-11-21T17:57:20;10.00;99.90
23813;DHT22;12087;45.190;5.688;2023-11-21T18:02:42;9.90;99.90
23813;DHT22;12087;45.190;5.688;2023-11-21T18:08:05;9.90;99.90
23813;DHT22;12087;45.190;5.688;2023-11-21T18:13:28;9.80;99.90
23813;DHT22;12087;45.190;5.688;2023-11-21T18:18:50;9.80;99.90
23813;DHT22;12087;45.190;5.688;2023-11-21T18:24:14;9.80;99.90
23813;DHT22;12087;45.190;5.688;2023-11-21T18:29:36;9.70;99.90
23813;DHT22;12087;45.190;5.688;2023-11-21T18:34:59;9.80;99.90
23813;DHT22;12087;45.190;5.688;2023-11-21T18:40:22;9.80;99.90
23813;DHT22;12087;45.190;5.688;2023-11-21T18:45:44;9.80;99.90
23813;DHT22;12087;45.190;5.688;2023-11-21T18:51:07;9.80;99.90
23813;DHT22;12087;45.190;5.688;2023-11-21T18:56:31;9.80;99.90
23813;DHT22;12087;45.190;5.688;2023-11-21T19:01:54;9.80;99.90
23813;DHT22;12087;45.190;5.688;2023-11-21T19:07:16;9.80;99.90
23813;DHT22;12087;45.190;5.688;2023-11-21T19:12:41;9.90;99.90
23813;DHT22;12087;45.190;5.688;2023-11-21T19:18:03;9.80;99.90
23813;DHT22;12087;45.190;5.688;2023-11-21T19:23:26;9.80;99.90
23813;DHT22;12087;45.190;5.688;2023-11-21T19:28:49;9.80;99.90
23813;DHT22;12087;45.190;5.688;2023-11-21T19:34:12;9.70;99.90
23813;DHT22;12087;45.190;5.688;2023-11-21T19:39:34;9.70;99.90
23813;DHT22;12087;45.190;5.688;2023-11-21T19:44:57;9.70;99.90
23813;DHT22;12087;45.190;5.688;2023-11-21T19:50:20;9.60;99.90
23813;DHT22;12087;45.190;5.688;2023-11-21T19:55:42;9.60;99.90
23813;DHT22;12087;45.190;5.688;2023-11-21T20:01:06;9.60;99.90
23813;DHT22;12087;45.190;5.688;2023-11-21T20:06:32;9.60;99.90
23813;DHT22;12087;45.190;5.688;2023-11-21T20:12:00;9.60;99.90
23813;DHT22;12087;45.190;5.688;2023-11-21T20:17:28;9.60;99.90
23813;DHT22;12087;45.190;5.688;2023-11-21T20:22:51;9.60;99.90
23813;DHT22;12087;45.190;5.688;2023-11-21T20:28:13;9.60;99.90
23813;DHT22;12087;45.190;5.688;2023-11-21T20:33:37;9.60;99.90
23813;DHT22;12087;45.190;5.688;2023-11-21T20:38:59;9.60;99.90
23813;DHT22;12087;45.190;5.688;2023-11-21T20:44:22;9.60;99.90
23813;DHT22;12087;45.190;5.688;2023-11-21T20:49:45;9.60;99.90
23813;DHT22;12087;45.190;5.688;2023-11-21T20:55:08;9.60;99.90
23813;DHT22;12087;45.190;5.688;2023-11-21T21:00:30;9.60;99.90
23813;DHT22;12087;45.190;5.688;2023-11-21T21:05:55;9.60;99.90
23813;DHT22;12087;45.190;5.688;2023-11-21T21:11:17;9.60;99.90
23813;DHT22;12087;45.190;5.688;2023-11-21T21:16:40;9.50;99.90
23813;DHT22;12087;45.190;5.688;2023-11-21T21:22:04;9.60;99.90
23813;DHT22;12087;45.190;5.688;2023-11-21T21:27:26;9.60;99.90
23813;DHT22;12087;45.190;5.688;2023-11-21T21:32:49;9.50;99.90
23813;DHT22;12087;45.190;5.688;2023-11-21T21:38:12;9.50;99.90
23813;DHT22;12087;45.190;5.688;2023-11-21T21:43:35;9.40;99.90
23813;DHT22;12087;45.190;5.688;2023-11-21T21:48:57;9.40;99.90
23813;DHT22;12087;45.190;5.688;2023-11-21T21:54:21;9.40;99.90
23813;DHT22;12087;45.190;5.688;2023-11-21T21:59:43;9.40;99.90
23813;DHT22;12087;45.190;5.688;2023-11-21T22:05:09;9.50;99.90
23813;DHT22;12087;45.190;5.688;2023-11-21T22:10:35;9.50;99.90
23813;DHT22;12087;45.190;5.688;2023-11-21T22:15:57;9.40;99.90
23813;DHT22;12087;45.190;5.688;2023-11-21T22:21:19;9.50;99.90
23813;DHT22;12087;45.190;5.688;2023-11-21T22:26:43;9.50;99.90
23813;DHT22;12087;45.190;5.688;2023-11-21T22:32:06;9.50;99.90
23813;DHT22;12087;45.190;5.688;2023-11-21T22:37:28;9.50;99.90
23813;DHT22;12087;45.190;5.688;2023-11-21T22:42:52;9.50;99.90
23813;DHT22;12087;45.190;5.688;2023-11-21T22:48:14;9.50;99.90
23813;DHT22;12087;45.190;5.688;2023-11-21T22:53:37;9.50;99.90
23813;DHT22;12087;45.190;5.688;2023-11-21T22:59:02;9.50;99.90
23813;DHT22;12087;45.190;5.688;2023-11-21T23:04:25;9.50;99.90
23813;DHT22;12087;45.190;5.688;2023-11-21T23:09:47;9.50;99.90
23813;DHT22;12087;45.190;5.688;2023-11-21T23:15:11;9.50;99.90
23813;DHT22;12087;45.190;5.688;2023-11-21T23:20:33;9.50;99.90
23813;DHT22;12087;45.190;5.688;2023-11-21T23:25:56;9.50;99.90
23813;DHT22;12087;45.190;5.688;2023-11-21T23:31:20;9.50;99.90
23813;DHT22;12087;45.190;5.688;2023-11-21T23:36:42;9.50;99.90
23813;DHT22;12087;45.190;5.688;2023-11-21T23:42:06;9.50;99.90
23813;DHT22;12087;45.190;5.688;2023-11-21T23:47:30;9.60;99.90
23813;DHT22;12087;45.190;5.688;2023-11-21T23:52:52;9.50;99.90
23813;DHT22;12087;45.190;5.688;2023-11-21T23:58:14;9.50;99.90
